Nearby METAR Reports

 

EDNY - Friedrichshafen, Germany
Distance from station: O 31km
aktuell: 28.11.2014 14:50
Few Clouds
Few Clouds
 Wind von N
Wind: N 26 km/h
Temperatur: 6°C
gefühlte Temperatur: 2°C
Taupunkt: 2°C
Luftfeuchte: 76%
Luftdruck: 1007 hPa
Clouds: Few Clouds
Visibility: 10 km
Cloud details: Few Clouds 305 m
2014/11/28 13:50 EDNY 281350Z 01014KT 9999 FEW010 06/02 Q1007 RMK ATIS S
LSZR - Rheineck/Altenrh, Switzerland
Distance from station: SO 42km
aktuell: 28.11.2014 14:50
Few Clouds
Few Clouds
 Wind von WNW
Wind: WNW 6 km/h
Temperatur: 7°C
Taupunkt: 5°C
Luftfeuchte: 87%
Luftdruck: 1007 hPa
Clouds: Few Clouds
Visibility: 10 km
Cloud details: Few Clouds 305 m
2014/11/28 13:50 LSZR 281350Z 30003KT 9999 FEW010 07/05 Q1007 NOSIG RMK J
LSZH - Zurich-Kloten (a, Switzerland
Distance from station: WSW 49km
aktuell: 28.11.2014 14:50
teilweise bewölkt
teilweise bewölkt
 Wind von varies
Wind: varies 11 km/h
Temperatur: 6°C
gefühlte Temperatur: 4°C
Taupunkt: 4°C
Luftfeuchte: 87%
Luftdruck: 1006 hPa
Clouds: teilweise bewölkt
Visibility: 10 km
Cloud details: Few Clouds 244 m
teilweise bewölkt 305 m
2014/11/28 13:50 LSZH 281350Z VRB06KT 9999 FEW008 SCT010 06/04 Q1006 TEMPO BKN010
 
EDTD - Donaueschingen, Germany
Distance from station: NW 53km
aktuell: 30.04.2014 18:20
NOT Current
sehr leichter Niederschlag, geschlossene Wolkendecke
sehr leichter Niederschlag, geschlossene Wolkendecke
 Wind von SSW
Wind: SSW 9 km/h
Temperatur: 10°C
gefühlte Temperatur: 9°C
Taupunkt: 10°C
Luftfeuchte: 100%
Luftdruck: 1011 hPa
Zusammenfassung: sehr leichter Niederschlag
Clouds: geschlossene Wolkendecke
Visibility: 9 km
Cloud details: stark bewölkt 213 m
geschlossene Wolkendecke 335 m
2014/04/30 16:20 EDTD 301620Z 20005KT 9000 -RA BKN007 OVC011 10/10 Q1011 LAST ?
ETGZ - Messstetten, Germany
Distance from station: N 54km
aktuell: 30.09.2013 14:20
NOT Current
geschlossene Wolkendecke
geschlossene Wolkendecke
 Wind von varies
Wind: varies 4 km/h
Temperatur: 8°C
Taupunkt: 7°C
Luftfeuchte: 93%
Luftdruck: 1007 hPa
Clouds: geschlossene Wolkendecke
Visibility: 10 km
Cloud details: geschlossene Wolkendecke 213 m
2013/09/30 12:20 ETGZ 301220Z VRB02KT 9999 OVC007 08/07 Q1007 GRN
LOIH - Hohenems-Dornbir, Austria
Distance from station: SO 57km
aktuell: 28.11.2014 14:00
NOT Current
stark bewölkt
stark bewölkt
 Wind von NO
Wind: NO 4 km/h
Temperatur: 8°C
Taupunkt: 7°C
Luftfeuchte: 93%
Luftdruck: 1006 hPa
Clouds: stark bewölkt
Cloud details: Few Clouds 122 m
stark bewölkt 9144 m
2014/11/28 13:00 LOIH 281300Z 04002KT 35KM FEW004ST BKN300CI 08/07 Q1006 RMK BKN
 
ETHL - Laupheim (ger-Ar, Germany
Distance from station: NO 84km
aktuell: 28.11.2014 14:20
Fog, geschlossene Wolkendecke
Fog, geschlossene Wolkendecke
 Wind von ONO
Wind: ONO 17 km/h
Temperatur: 1°C
gefühlte Temperatur: -3°C
Taupunkt: 1°C
Luftfeuchte: 100%
Luftdruck: 1009 hPa
Zusammenfassung: Fog
Clouds: geschlossene Wolkendecke
Visibility: 0 km
Cloud details: geschlossene Wolkendecke 30 m
2014/11/28 13:20 ETHL 281320Z 06009KT 0300 FG VV001 01/01 Q1009 RED
EDJA - Memmingen Allgau, Germany
Distance from station: ONO 90km
aktuell: 28.11.2014 14:50
Mist, stark bewölkt
Mist, stark bewölkt
 Wind von O
Wind: O 17 km/h
Temperatur: 2°C
gefühlte Temperatur: -2°C
Taupunkt: 2°C
Luftfeuchte: 100%
Luftdruck: 1008 hPa
Zusammenfassung: Mist
Clouds: stark bewölkt
Visibility: 1 km
Cloud details: stark bewölkt 30 m
2014/11/28 13:50 EDJA 281350Z 08009KT 1400 R06/1500VP2000D BR BKN001 02/02 Q1008
LSME - Emmen, Switzerland
Distance from station: SW 90km
aktuell: 28.11.2014 14:50
geschlossene Wolkendecke
geschlossene Wolkendecke
 Wind von varies
Wind: varies 2 km/h
Temperatur: 7°C
Taupunkt: 5°C
Luftfeuchte: 87%
Luftdruck: 1006 hPa
Clouds: geschlossene Wolkendecke
Visibility: 10 km
Cloud details: geschlossene Wolkendecke 305 m
2014/11/28 13:50 LSME 281350Z VRB01KT 9999 OVC010 07/05 Q1006 RMK GRN
 
LSZC - Buochs, Switzerland
Distance from station: SSW 98km
aktuell: 28.11.2014 14:50
teilweise bewölkt
teilweise bewölkt
 Wind von SSW
Wind: SSW 9 km/h
Temperatur: 7°C
gefühlte Temperatur: 6°C
Taupunkt: 5°C
Luftfeuchte: 87%
Luftdruck: 1005 hPa
Clouds: teilweise bewölkt
Visibility: 7 km
Cloud details: teilweise bewölkt 274 m
teilweise bewölkt 4572 m
2014/11/28 13:50 LSZC 281350Z 21005KT 170V230 7000 SCT009 SCT150 07/05 Q1005